LTBL/IGI METAR and TAF weather

Enter ICAO airport designator
Station Type Date Time Source
LTBL METAR 2021/05/15 00:50 UTC NOAA

LTBL 150050Z 11004KT CAVOK 17/10 Q1014 NOSIG RMK RWY17 10003KT 050V140


Station Type Date Time Source
LTBL Decoded METAR 2021/05/15 00:50 UTC NOAA

Izmir / Cigli, Turkey (LTBL) 38-30N 027-01E 5M
May 14, 2021 - 08:50 PM EDT / 2021.05.15 0050 UTC
Wind: from the ESE (110 degrees) at 5 MPH (4 KT):0
Visibility: greater than 7 mile(s):0
Temperature: 62 F (17 C)
Dew Point: 50 F (10 C)
Relative Humidity: 63%
Pressure (altimeter): 29.94 in. Hg (1014 hPa)
ob: LTBL 150050Z 11004KT CAVOK 17/10 Q1014 NOSIG RMK RWY17 10003KT 050V140
cycle: 1

Station Type Date Time Source
LTBL TAF UTC NOAA

Error!

Example: see airport list